sensor_id;sensor_type;location;lat;lon;timestamp;pressure;altitude;pressure_sealevel;temperature;humidity
35758;BME280;21879;50.110;18.900;2023-07-31T00:08:44;98283.23;;;20.46;62.09
35758;BME280;21879;50.110;18.900;2023-07-31T00:19:11;98297.35;;;20.27;62.21
35758;BME280;21879;50.110;18.900;2023-07-31T00:29:39;98289.75;;;20.21;62.51
35758;BME280;21879;50.110;18.900;2023-07-31T00:40:08;98292.45;;;20.20;62.63
35758;BME280;21879;50.110;18.900;2023-07-31T00:50:36;98297.11;;;20.15;62.50
35758;BME280;21879;50.110;18.900;2023-07-31T01:01:05;98298.76;;;20.02;62.58
35758;BME280;21879;50.110;18.900;2023-07-31T01:11:34;98297.22;;;19.94;62.71
35758;BME280;21879;50.110;18.900;2023-07-31T01:22:25;98300.80;;;19.80;62.67
35758;BME280;21879;50.110;18.900;2023-07-31T01:32:58;98312.79;;;19.70;62.75
35758;BME280;21879;50.110;18.900;2023-07-31T01:43:28;98322.26;;;19.54;62.97
35758;BME280;21879;50.110;18.900;2023-07-31T01:53:56;98321.02;;;19.33;63.27
35758;BME280;21879;50.110;18.900;2023-07-31T02:04:23;98329.67;;;19.08;63.39
35758;BME280;21879;50.110;18.900;2023-07-31T02:14:51;98328.79;;;18.94;63.85
35758;BME280;21879;50.110;18.900;2023-07-31T02:25:19;98324.60;;;18.86;63.75
35758;BME280;21879;50.110;18.900;2023-07-31T02:35:46;98338.52;;;18.79;63.79
35758;BME280;21879;50.110;18.900;2023-07-31T02:46:14;98350.27;;;18.77;63.80
35758;BME280;21879;50.110;18.900;2023-07-31T02:56:41;98356.08;;;18.69;63.65
35758;BME280;21879;50.110;18.900;2023-07-31T03:07:09;98365.73;;;18.58;63.80
35758;BME280;21879;50.110;18.900;2023-07-31T03:17:36;98378.10;;;18.57;64.04
35758;BME280;21879;50.110;18.900;2023-07-31T03:28:04;98379.65;;;18.62;64.06
35758;BME280;21879;50.110;18.900;2023-07-31T03:38:32;98394.06;;;18.70;64.02
35758;BME280;21879;50.110;18.900;2023-07-31T03:49:00;98401.99;;;18.66;63.36
35758;BME280;21879;50.110;18.900;2023-07-31T03:59:27;98405.68;;;18.78;63.31
35758;BME280;21879;50.110;18.900;2023-07-31T04:09:56;98402.42;;;18.91;63.24
35758;BME280;21879;50.110;18.900;2023-07-31T04:20:23;98402.48;;;19.08;63.00
35758;BME280;21879;50.110;18.900;2023-07-31T04:30:51;98397.27;;;19.13;62.38
35758;BME280;21879;50.110;18.900;2023-07-31T04:41:19;98403.10;;;19.20;62.28
35758;BME280;21879;50.110;18.900;2023-07-31T04:51:46;98418.02;;;19.32;62.18
35758;BME280;21879;50.110;18.900;2023-07-31T05:02:14;98420.55;;;19.42;61.83
35758;BME280;21879;50.110;18.900;2023-07-31T05:12:42;98419.96;;;19.50;61.74
35758;BME280;21879;50.110;18.900;2023-07-31T05:23:10;98416.92;;;19.93;62.06
35758;BME280;21879;50.110;18.900;2023-07-31T05:33:37;98424.30;;;20.30;60.97
35758;BME280;21879;50.110;18.900;2023-07-31T05:44:05;98420.33;;;20.45;60.35
35758;BME280;21879;50.110;18.900;2023-07-31T05:54:33;98420.94;;;20.86;59.91
35758;BME280;21879;50.110;18.900;2023-07-31T06:05:00;98425.62;;;21.22;59.12
35758;BME280;21879;50.110;18.900;2023-07-31T06:15:28;98431.27;;;21.71;58.56
35758;BME280;21879;50.110;18.900;2023-07-31T06:25:56;98424.27;;;22.32;57.55
35758;BME280;21879;50.110;18.900;2023-07-31T06:36:24;98418.17;;;22.86;54.97
35758;BME280;21879;50.110;18.900;2023-07-31T06:46:52;98419.06;;;23.11;53.45
35758;BME280;21879;50.110;18.900;2023-07-31T06:57:19;98417.29;;;23.44;53.23
35758;BME280;21879;50.110;18.900;2023-07-31T07:07:48;98418.44;;;23.90;52.67
35758;BME280;21879;50.110;18.900;2023-07-31T07:18:16;98419.40;;;24.40;51.36
35758;BME280;21879;50.110;18.900;2023-07-31T07:28:44;98418.31;;;24.73;49.68
35758;BME280;21879;50.110;18.900;2023-07-31T07:39:12;98411.34;;;25.01;48.61
35758;BME280;21879;50.110;18.900;2023-07-31T07:49:40;98407.00;;;25.17;47.86
35758;BME280;21879;50.110;18.900;2023-07-31T08:00:11;98406.10;;;25.04;47.82
35758;BME280;21879;50.110;18.900;2023-07-31T08:10:39;98415.23;;;24.74;47.65
35758;BME280;21879;50.110;18.900;2023-07-31T08:21:07;98417.95;;;24.41;47.24
35758;BME280;21879;50.110;18.900;2023-07-31T08:31:34;98427.88;;;24.06;47.67
35758;BME280;21879;50.110;18.900;2023-07-31T08:42:02;98428.72;;;24.09;47.79
35758;BME280;21879;50.110;18.900;2023-07-31T08:52:30;98431.09;;;24.28;47.34
35758;BME280;21879;50.110;18.900;2023-07-31T09:03:01;98421.05;;;24.58;47.10
35758;BME280;21879;50.110;18.900;2023-07-31T09:13:31;98409.11;;;24.63;46.15
35758;BME280;21879;50.110;18.900;2023-07-31T09:23:59;98403.33;;;24.74;46.38
35758;BME280;21879;50.110;18.900;2023-07-31T09:34:37;98400.60;;;24.83;46.54
35758;BME280;21879;50.110;18.900;2023-07-31T09:45:12;98394.60;;;24.75;45.60
35758;BME280;21879;50.110;18.900;2023-07-31T09:55:47;98387.14;;;24.52;44.81
35758;BME280;21879;50.110;18.900;2023-07-31T10:06:15;98387.39;;;24.33;44.91
35758;BME280;21879;50.110;18.900;2023-07-31T10:16:45;98379.69;;;24.14;45.20
35758;BME280;21879;50.110;18.900;2023-07-31T10:27:13;98374.98;;;24.13;45.74
35758;BME280;21879;50.110;18.900;2023-07-31T10:37:42;98361.59;;;24.08;45.74
35758;BME280;21879;50.110;18.900;2023-07-31T10:48:14;98352.02;;;24.09;46.05
35758;BME280;21879;50.110;18.900;2023-07-31T10:58:45;98342.77;;;24.31;44.97
35758;BME280;21879;50.110;18.900;2023-07-31T11:09:14;98338.10;;;24.45;44.08
35758;BME280;21879;50.110;18.900;2023-07-31T11:19:42;98330.16;;;24.59;43.27
35758;BME280;21879;50.110;18.900;2023-07-31T11:30:11;98320.11;;;24.72;42.91
35758;BME280;21879;50.110;18.900;2023-07-31T11:40:43;98312.80;;;24.80;42.14
35758;BME280;21879;50.110;18.900;2023-07-31T11:51:12;98307.59;;;24.90;41.96
35758;BME280;21879;50.110;18.900;2023-07-31T12:01:41;98303.08;;;24.96;41.83
35758;BME280;21879;50.110;18.900;2023-07-31T12:12:10;98290.60;;;24.87;42.00
35758;BME280;21879;50.110;18.900;2023-07-31T12:22:46;98279.48;;;24.73;42.38
35758;BME280;21879;50.110;18.900;2023-07-31T12:33:18;98272.30;;;24.60;42.68
35758;BME280;21879;50.110;18.900;2023-07-31T12:43:46;98252.83;;;24.56;43.24
35758;BME280;21879;50.110;18.900;2023-07-31T12:54:14;98240.09;;;24.58;42.94
35758;BME280;21879;50.110;18.900;2023-07-31T13:04:42;98235.17;;;24.71;43.13
35758;BME280;21879;50.110;18.900;2023-07-31T13:15:10;98226.39;;;24.77;42.07
35758;BME280;21879;50.110;18.900;2023-07-31T13:25:38;98216.95;;;24.80;42.43
35758;BME280;21879;50.110;18.900;2023-07-31T13:36:06;98210.86;;;24.76;42.05
35758;BME280;21879;50.110;18.900;2023-07-31T13:46:33;98200.94;;;24.56;41.90
35758;BME280;21879;50.110;18.900;2023-07-31T13:57:15;98195.80;;;24.34;42.16
35758;BME280;21879;50.110;18.900;2023-07-31T14:07:43;98194.30;;;24.33;42.49
35758;BME280;21879;50.110;18.900;2023-07-31T14:18:11;98197.71;;;24.40;42.55
35758;BME280;21879;50.110;18.900;2023-07-31T14:28:39;98203.94;;;24.40;42.56
35758;BME280;21879;50.110;18.900;2023-07-31T14:39:06;98201.85;;;24.29;42.80
35758;BME280;21879;50.110;18.900;2023-07-31T14:49:34;98201.56;;;24.21;43.14
35758;BME280;21879;50.110;18.900;2023-07-31T15:00:02;98196.95;;;24.06;43.33
35758;BME280;21879;50.110;18.900;2023-07-31T15:10:33;98185.00;;;24.04;44.17
35758;BME280;21879;50.110;18.900;2023-07-31T15:21:01;98175.45;;;24.11;44.39
35758;BME280;21879;50.110;18.900;2023-07-31T15:31:29;98176.39;;;24.18;44.23
35758;BME280;21879;50.110;18.900;2023-07-31T15:41:56;98170.53;;;24.15;44.03
35758;BME280;21879;50.110;18.900;2023-07-31T15:52:24;98160.42;;;24.13;43.99
35758;BME280;21879;50.110;18.900;2023-07-31T16:02:52;98154.88;;;24.11;44.06
35758;BME280;21879;50.110;18.900;2023-07-31T16:13:19;98144.68;;;24.09;44.77
35758;BME280;21879;50.110;18.900;2023-07-31T16:23:47;98137.88;;;24.10;44.81
35758;BME280;21879;50.110;18.900;2023-07-31T16:34:15;98134.14;;;23.98;44.72
35758;BME280;21879;50.110;18.900;2023-07-31T16:44:43;98121.73;;;23.88;45.26
35758;BME280;21879;50.110;18.900;2023-07-31T16:55:11;98112.98;;;23.74;45.21
35758;BME280;21879;50.110;18.900;2023-07-31T17:05:39;98111.19;;;23.62;45.30
35758;BME280;21879;50.110;18.900;2023-07-31T17:16:08;98110.52;;;23.52;45.43
35758;BME280;21879;50.110;18.900;2023-07-31T17:26:36;98114.92;;;23.42;45.93
35758;BME280;21879;50.110;18.900;2023-07-31T17:37:03;98114.67;;;23.35;47.84
35758;BME280;21879;50.110;18.900;2023-07-31T17:47:31;98106.71;;;23.30;49.59
35758;BME280;21879;50.110;18.900;2023-07-31T17:57:59;98107.25;;;23.18;50.48
35758;BME280;21879;50.110;18.900;2023-07-31T18:08:26;98114.27;;;22.90;50.89
35758;BME280;21879;50.110;18.900;2023-07-31T18:18:54;98120.57;;;22.81;52.02
35758;BME280;21879;50.110;18.900;2023-07-31T18:29:22;98134.85;;;22.72;52.89
35758;BME280;21879;50.110;18.900;2023-07-31T18:39:50;98130.34;;;22.63;52.90
35758;BME280;21879;50.110;18.900;2023-07-31T18:50:18;98124.65;;;22.42;52.73
35758;BME280;21879;50.110;18.900;2023-07-31T19:00:45;98121.30;;;22.09;52.73
35758;BME280;21879;50.110;18.900;2023-07-31T19:11:13;98136.40;;;21.78;52.68
35758;BME280;21879;50.110;18.900;2023-07-31T19:21:58;98146.23;;;21.54;53.32
35758;BME280;21879;50.110;18.900;2023-07-31T19:32:27;98141.96;;;21.38;53.60
35758;BME280;21879;50.110;18.900;2023-07-31T19:42:55;98134.80;;;21.05;53.89
35758;BME280;21879;50.110;18.900;2023-07-31T19:53:26;98130.45;;;20.80;54.30
35758;BME280;21879;50.110;18.900;2023-07-31T20:03:54;98112.55;;;20.63;54.93
35758;BME280;21879;50.110;18.900;2023-07-31T20:14:22;98116.58;;;20.39;55.08
35758;BME280;21879;50.110;18.900;2023-07-31T20:24:50;98111.59;;;20.25;55.61
35758;BME280;21879;50.110;18.900;2023-07-31T20:35:17;98113.85;;;20.13;55.89
35758;BME280;21879;50.110;18.900;2023-07-31T20:45:45;98104.83;;;19.96;56.02
35758;BME280;21879;50.110;18.900;2023-07-31T20:56:13;98083.72;;;19.76;56.23
35758;BME280;21879;50.110;18.900;2023-07-31T21:06:40;98069.83;;;19.68;56.38
35758;BME280;21879;50.110;18.900;2023-07-31T21:17:08;98046.98;;;19.61;56.62
35758;BME280;21879;50.110;18.900;2023-07-31T21:27:36;98044.45;;;19.55;56.74
35758;BME280;21879;50.110;18.900;2023-07-31T21:38:04;98037.39;;;19.52;56.78
35758;BME280;21879;50.110;18.900;2023-07-31T21:48:36;98029.73;;;19.48;56.81
35758;BME280;21879;50.110;18.900;2023-07-31T21:59:04;98018.94;;;19.42;57.04
35758;BME280;21879;50.110;18.900;2023-07-31T22:09:32;98005.84;;;19.27;57.25
35758;BME280;21879;50.110;18.900;2023-07-31T22:19:59;98000.05;;;19.20;57.44
35758;BME280;21879;50.110;18.900;2023-07-31T22:30:27;97999.73;;;19.16;57.71
35758;BME280;21879;50.110;18.900;2023-07-31T22:40:55;97991.91;;;19.08;58.14
35758;BME280;21879;50.110;18.900;2023-07-31T22:51:24;97980.23;;;19.06;58.57
35758;BME280;21879;50.110;18.900;2023-07-31T23:01:52;97973.02;;;19.02;59.19
35758;BME280;21879;50.110;18.900;2023-07-31T23:12:20;97972.09;;;19.00;59.49
35758;BME280;21879;50.110;18.900;2023-07-31T23:22:48;97966.71;;;18.98;59.71
35758;BME280;21879;50.110;18.900;2023-07-31T23:33:16;97961.11;;;19.07;59.66
35758;BME280;21879;50.110;18.900;2023-07-31T23:43:43;97943.09;;;19.18;59.56
35758;BME280;21879;50.110;18.900;2023-07-31T23:54:12;97929.65;;;19.12;59.38
